Preview an experimental upcoming version of this site at Beta.AviationWeather.gov

Impacts TAF Board
For situational awareness. Not to be used for flight planning purposes.
IDs:

KBOS - Boston/Logan Intl, MA, US

Issued at 1125 UTC 26 Sep 2023
Updated at 1252 UTC 26 Sep 2023
Potential Impact None Slight Moderate High
Time1154Z 26/13Z 26/14Z 26/15Z 26/16Z 26/17Z 26/18Z 26/19Z 26/20Z 26/21Z 26/22Z 26/23Z 27/00Z 27/01Z>>
Type OBS PRVL PRVL PRVL PRVL PRVL PRVL PRVL PRVL PRVL PRVL PRVL PRVL PRVL
VIS 10 >6 >6 >6 >6 >6 >6 >6 >6 >6 >6 >6 >6 >6
CIG 17 15 15 15 15 15 -- -- -- -- -- -- -- --
Cover OVC OVC OVC OVC OVC OVC SCT SCT SCT SCT SCT SCT SCT SCT
FltCat MVFR MVFR MVFR MVFR MVFR MVFR VFR VFR VFR VFR VFR VFR VFR VFR
WX -- -- -- -- -- -- -- -- -- -- -- -- -- --
WDir 40 50 50 50 50 50 50 50 50 50 50 50 60 60
WSpd 19 15 15 15 15 15 13 13 13 13 13 13 9 9
WGst 24 25 25 25 25 25 -- -- -- -- -- -- -- --
WSHgt -- -- -- -- -- -- -- -- -- -- -- -- -- --
WSDir -- -- -- -- -- -- -- -- -- -- -- -- -- --
WSSpd -- -- -- -- -- -- -- -- -- -- -- -- -- --

NOTE: LAMP data beyond the time of the TAF data is denoted as LAMP in Type and colored magenta.

Raw TAF
KBOS 261125Z 2612/2718 05015G25KT P6SM OVC015
  FM261800 05013KT P6SM SCT025
  FM270000 06009KT P6SM SCT250
  FM270800 03007KT P6SM SCT250


Raw METAR
KBOS 261154Z 04019G24KT 10SM BKN017 OVC022 14/12 A3038 RMK AO2 SLP288 70007 T01440117 10156 20144 51015
KBOS 261054Z 05016KT 10SM OVC016 14/12 A3037 RMK AO2 SLP283 T01440122
KBOS 260954Z 04017G22KT 10SM BKN015 OVC020 14/12 A3035 RMK AO2 SLP278 T01440117

METAR Board
Radar Display
Forecast Discussion

For situational awareness. Not to be used for flight planning purposes.